createdAt,value
2023-12-30T00:00:17.794Z,8.4
2023-12-30T00:01:16.373Z,8.4
2023-12-30T00:02:16.310Z,8.4
2023-12-30T00:03:16.353Z,8.3
2023-12-30T00:04:16.345Z,8.3
2023-12-30T00:05:16.310Z,8.3
2023-12-30T00:06:16.340Z,8.3
2023-12-30T00:07:16.349Z,8.3
2023-12-30T00:08:16.315Z,8.3
2023-12-30T00:09:16.345Z,8.3
2023-12-30T00:10:16.361Z,8.3
2023-12-30T00:11:16.330Z,8.4
2023-12-30T00:12:16.345Z,8.4
2023-12-30T00:13:16.372Z,8.4
2023-12-30T00:14:16.321Z,8.4
2023-12-30T00:15:16.328Z,8.4
2023-12-30T00:16:16.364Z,8.4
2023-12-30T00:17:16.611Z,8.4
2023-12-30T00:18:19.828Z,8.4
2023-12-30T00:19:22.813Z,8.4
2023-12-30T00:20:16.318Z,8.4
2023-12-30T00:21:16.601Z,8.4
2023-12-30T00:22:16.347Z,8.4
2023-12-30T00:23:16.314Z,8.5
2023-12-30T00:24:16.312Z,8.5
2023-12-30T00:25:16.396Z,8.5
2023-12-30T00:26:16.313Z,8.5
2023-12-30T00:27:16.312Z,8.5
2023-12-30T00:28:16.310Z,8.5
2023-12-30T00:29:16.315Z,8.5
2023-12-30T00:30:16.459Z,8.5
2023-12-30T00:31:16.319Z,8.5
2023-12-30T00:32:16.335Z,8.5
2023-12-30T00:33:16.408Z,8.6
2023-12-30T00:34:16.449Z,8.6
2023-12-30T00:35:16.372Z,8.5
2023-12-30T00:36:16.313Z,8.5
2023-12-30T00:37:16.320Z,8.5
2023-12-30T00:38:23.790Z,8.5
2023-12-30T00:39:19.752Z,8.5
2023-12-30T00:40:26.245Z,8.5
2023-12-30T00:41:16.313Z,8.5
2023-12-30T00:42:16.499Z,8.4
2023-12-30T00:43:16.337Z,8.4
2023-12-30T00:44:16.328Z,8.4
2023-12-30T00:45:16.326Z,8.4
2023-12-30T00:46:16.333Z,8.4
2023-12-30T00:47:16.316Z,8.4
2023-12-30T00:48:16.356Z,8.4
2023-12-30T00:49:16.481Z,8.4
2023-12-30T00:50:16.318Z,8.3
2023-12-30T00:51:16.367Z,8.2
2023-12-30T00:53:16.315Z,8.2
2023-12-30T00:54:16.312Z,8.1
2023-12-30T00:55:16.332Z,8.1
2023-12-30T00:56:16.316Z,8
2023-12-30T00:57:16.310Z,8
2023-12-30T00:58:16.380Z,8
2023-12-30T00:59:16.735Z,8
2023-12-30T01:00:19.823Z,8
2023-12-30T01:01:23.227Z,7.9
2023-12-30T01:02:16.322Z,7.9
2023-12-30T01:03:16.732Z,7.8
2023-12-30T01:04:16.346Z,7.8
2023-12-30T01:05:16.377Z,7.8
2023-12-30T01:06:16.329Z,7.8
2023-12-30T01:07:16.361Z,7.8
2023-12-30T01:08:16.337Z,7.8
2023-12-30T01:09:16.320Z,7.8
2023-12-30T01:10:16.341Z,7.8
2023-12-30T01:11:16.311Z,7.8
2023-12-30T01:12:16.317Z,7.8
2023-12-30T01:13:16.331Z,7.8
2023-12-30T01:14:16.334Z,7.8
2023-12-30T01:15:16.310Z,7.8
2023-12-30T01:16:16.338Z,7.8
2023-12-30T01:17:16.373Z,7.8
2023-12-30T01:18:16.461Z,7.9
2023-12-30T01:19:16.377Z,7.9
2023-12-30T01:20:16.783Z,7.9
2023-12-30T01:21:19.909Z,7.9
2023-12-30T01:22:22.942Z,7.9
2023-12-30T01:23:16.363Z,7.9
2023-12-30T01:24:16.498Z,7.9
2023-12-30T01:25:16.344Z,7.9
2023-12-30T01:26:16.331Z,7.9
2023-12-30T01:27:16.324Z,7.9
2023-12-30T01:28:16.351Z,7.9
2023-12-30T01:30:16.332Z,7.9
2023-12-30T01:31:16.436Z,7.9
2023-12-30T01:32:16.311Z,7.9
2023-12-30T01:33:16.361Z,7.9
2023-12-30T01:34:16.387Z,7.9
2023-12-30T01:35:16.307Z,7.8
2023-12-30T01:36:16.320Z,7.8
2023-12-30T01:37:16.386Z,7.8
2023-12-30T01:38:16.309Z,7.8
2023-12-30T01:39:16.327Z,7.7
2023-12-30T01:40:16.341Z,7.7
2023-12-30T01:41:16.923Z,7.7
2023-12-30T01:42:20.038Z,7.8
2023-12-30T01:43:23.231Z,7.8
2023-12-30T01:44:16.403Z,7.8
2023-12-30T01:45:16.316Z,7.7
2023-12-30T01:46:16.374Z,7.7
2023-12-30T01:47:16.348Z,7.7
2023-12-30T01:48:16.411Z,7.7
2023-12-30T01:49:16.351Z,7.7
2023-12-30T01:50:16.326Z,7.7
2023-12-30T01:51:23.484Z,7.7
2023-12-30T01:52:16.353Z,7.6
2023-12-30T01:53:16.358Z,7.6
2023-12-30T01:54:16.311Z,7.5
2023-12-30T01:55:16.416Z,7.5
2023-12-30T01:56:16.309Z,7.5
2023-12-30T01:57:16.314Z,7.4
2023-12-30T01:58:16.355Z,7.4
2023-12-30T01:59:16.335Z,7.4
2023-12-30T02:00:16.318Z,7.4
2023-12-30T02:01:16.400Z,7.4
2023-12-30T02:02:17.167Z,7.4
2023-12-30T02:03:20.148Z,7.4
2023-12-30T02:04:23.102Z,7.3
2023-12-30T02:05:16.789Z,7.3
2023-12-30T02:06:16.341Z,7.3
2023-12-30T02:07:16.331Z,7.3
2023-12-30T02:08:16.342Z,7.3
2023-12-30T02:09:16.318Z,7.3
2023-12-30T02:10:16.359Z,7.3
2023-12-30T02:11:16.331Z,7.3
2023-12-30T02:12:16.328Z,7.4
2023-12-30T02:13:16.358Z,7.4
2023-12-30T02:14:16.311Z,7.5
2023-12-30T02:15:16.347Z,7.5
2023-12-30T02:16:16.357Z,7.5
2023-12-30T02:17:16.320Z,7.6
2023-12-30T02:18:16.363Z,7.6
2023-12-30T02:19:16.367Z,7.7
2023-12-30T02:20:16.314Z,7.7
2023-12-30T02:21:16.318Z,7.7
2023-12-30T02:22:16.356Z,7.7
2023-12-30T02:23:16.314Z,7.7
2023-12-30T02:24:16.317Z,7.8
2023-12-30T02:25:17.647Z,7.8
2023-12-30T02:26:20.661Z,7.8
2023-12-30T02:27:23.474Z,7.8
2023-12-30T02:28:16.339Z,7.9
2023-12-30T02:29:16.316Z,7.9
2023-12-30T02:30:16.331Z,7.9
2023-12-30T02:31:16.374Z,7.9
2023-12-30T02:32:16.353Z,7.9
2023-12-30T02:33:16.372Z,7.8
2023-12-30T02:34:16.436Z,7.7
2023-12-30T02:35:16.318Z,7.7
2023-12-30T02:36:16.325Z,7.6
2023-12-30T02:37:16.352Z,7.5
2023-12-30T02:38:16.353Z,7.5
2023-12-30T02:39:16.352Z,7.5
2023-12-30T02:40:16.321Z,7.3
2023-12-30T02:41:16.316Z,7.3
2023-12-30T02:42:16.327Z,7.3
2023-12-30T02:43:16.336Z,7.2
2023-12-30T02:44:16.310Z,7.2
2023-12-30T02:45:16.347Z,7.2
2023-12-30T02:46:17.605Z,7.2
2023-12-30T02:47:20.925Z,7.2
2023-12-30T02:49:16.566Z,7.2
2023-12-30T02:50:16.316Z,7.2
2023-12-30T02:51:16.312Z,7.2
2023-12-30T02:52:16.317Z,7.2
2023-12-30T02:53:16.483Z,7.2
2023-12-30T02:54:16.329Z,7.2
2023-12-30T02:55:16.336Z,7.2
2023-12-30T02:56:16.315Z,7.1
2023-12-30T02:57:16.321Z,7.1
2023-12-30T02:58:16.427Z,7.1
2023-12-30T02:59:16.324Z,7
2023-12-30T03:00:16.386Z,7
2023-12-30T03:01:16.328Z,7
2023-12-30T03:02:16.314Z,7
2023-12-30T03:03:16.327Z,7
2023-12-30T03:04:16.372Z,6.9
2023-12-30T03:05:16.466Z,6.9
2023-12-30T03:06:16.336Z,6.9
2023-12-30T03:07:17.744Z,6.9
2023-12-30T03:08:20.877Z,6.8
2023-12-30T03:09:16.323Z,6.8
2023-12-30T03:10:16.361Z,6.8
2023-12-30T03:11:16.334Z,6.8
2023-12-30T03:12:16.309Z,6.7
2023-12-30T03:13:16.338Z,6.7
2023-12-30T03:14:16.557Z,6.7
2023-12-30T03:15:16.315Z,6.7
2023-12-30T03:16:16.379Z,6.7
2023-12-30T03:17:16.311Z,6.6
2023-12-30T03:18:16.373Z,6.6
2023-12-30T03:19:16.331Z,6.6
2023-12-30T03:20:16.318Z,6.6
2023-12-30T03:21:16.306Z,6.6
2023-12-30T03:22:16.339Z,6.6
2023-12-30T03:23:16.344Z,6.6
2023-12-30T03:24:16.310Z,6.6
2023-12-30T03:25:16.370Z,6.6
2023-12-30T03:26:16.313Z,6.6
2023-12-30T03:27:16.328Z,6.6
2023-12-30T03:28:18.103Z,6.6
2023-12-30T03:29:20.875Z,6.6
2023-12-30T03:30:16.353Z,6.6
2023-12-30T03:31:16.321Z,6.6
2023-12-30T03:32:16.314Z,6.5
2023-12-30T03:33:16.362Z,6.6
2023-12-30T03:34:16.396Z,6.6
2023-12-30T03:35:16.575Z,6.5
2023-12-30T03:36:16.318Z,6.5
2023-12-30T03:37:16.358Z,6.6
2023-12-30T03:38:16.323Z,6.6
2023-12-30T03:39:16.347Z,6.6
2023-12-30T03:40:16.360Z,6.6
2023-12-30T03:41:16.311Z,6.6
2023-12-30T03:42:16.321Z,6.6
2023-12-30T03:43:16.359Z,6.6
2023-12-30T03:44:16.338Z,6.6
2023-12-30T03:45:16.345Z,6.6
2023-12-30T03:46:16.348Z,6.6
2023-12-30T03:47:16.311Z,6.6
2023-12-30T03:48:16.423Z,6.6
2023-12-30T03:49:17.962Z,6.6
2023-12-30T03:50:20.982Z,6.6
2023-12-30T03:51:16.314Z,6.6
2023-12-30T03:52:16.343Z,6.6
2023-12-30T03:53:16.321Z,6.6
2023-12-30T03:54:16.319Z,6.6
2023-12-30T03:55:16.320Z,6.6
2023-12-30T03:56:16.514Z,6.6
2023-12-30T03:57:16.315Z,6.6
2023-12-30T03:58:16.334Z,6.6
2023-12-30T03:59:16.309Z,6.6
2023-12-30T04:00:16.340Z,6.6
2023-12-30T04:01:16.350Z,6.6
2023-12-30T04:02:16.313Z,6.6
2023-12-30T04:03:16.341Z,6.6
2023-12-30T04:04:16.356Z,6.6
2023-12-30T04:05:16.342Z,6.6
2023-12-30T04:06:16.312Z,6.6
2023-12-30T04:07:16.340Z,6.6
2023-12-30T04:08:16.311Z,6.6
2023-12-30T04:09:16.314Z,6.6
2023-12-30T04:10:18.153Z,6.6
2023-12-30T04:11:21.174Z,6.6
2023-12-30T04:12:16.319Z,6.6
2023-12-30T04:13:16.345Z,6.6
2023-12-30T04:14:16.310Z,6.6
2023-12-30T04:15:16.324Z,6.6
2023-12-30T04:16:16.353Z,6.6
2023-12-30T04:17:16.316Z,6.6
2023-12-30T04:18:16.432Z,6.6
2023-12-30T04:19:16.435Z,6.6
2023-12-30T04:20:16.402Z,6.6
2023-12-30T04:21:16.322Z,6.6
2023-12-30T04:22:16.441Z,6.6
2023-12-30T04:23:16.677Z,6.6
2023-12-30T04:24:16.649Z,6.6
2023-12-30T04:25:16.808Z,6.6
2023-12-30T04:26:16.319Z,6.7
2023-12-30T04:27:16.319Z,6.7
2023-12-30T04:28:16.364Z,6.7
2023-12-30T04:29:16.317Z,6.8
2023-12-30T04:30:16.352Z,6.8
2023-12-30T04:31:18.414Z,6.8
2023-12-30T04:32:21.329Z,6.9
2023-12-30T04:33:16.345Z,6.9
2023-12-30T04:34:16.412Z,6.9
2023-12-30T04:35:16.321Z,6.9
2023-12-30T04:36:16.333Z,6.9
2023-12-30T04:37:16.349Z,6.9
2023-12-30T04:38:16.348Z,6.9
2023-12-30T04:39:16.340Z,6.9
2023-12-30T04:40:16.355Z,6.9
2023-12-30T04:41:16.327Z,6.9
2023-12-30T04:42:16.324Z,6.9
2023-12-30T04:43:16.338Z,6.9
2023-12-30T04:44:16.322Z,6.9
2023-12-30T04:45:16.311Z,6.9
2023-12-30T04:46:16.350Z,6.8
2023-12-30T04:47:16.317Z,6.8
2023-12-30T04:48:16.422Z,6.8
2023-12-30T04:49:16.353Z,6.8
2023-12-30T04:50:16.319Z,6.8
2023-12-30T04:51:16.320Z,6.9
2023-12-30T04:52:18.531Z,6.9
2023-12-30T04:53:21.338Z,6.9
2023-12-30T04:54:16.320Z,6.9
2023-12-30T04:55:16.344Z,6.8
2023-12-30T04:56:16.333Z,6.8
2023-12-30T04:57:16.326Z,6.8
2023-12-30T04:58:16.345Z,6.8
2023-12-30T04:59:16.329Z,6.7
2023-12-30T05:00:16.854Z,6.7
2023-12-30T05:01:16.444Z,6.7
2023-12-30T05:02:16.312Z,6.7
2023-12-30T05:03:16.351Z,6.8
2023-12-30T05:04:16.339Z,6.8
2023-12-30T05:05:16.343Z,6.8
2023-12-30T05:06:16.335Z,6.8
2023-12-30T05:07:16.363Z,6.8
2023-12-30T05:08:16.328Z,6.9
2023-12-30T05:09:16.498Z,6.9
2023-12-30T05:10:16.331Z,6.9
2023-12-30T05:11:16.349Z,6.9
2023-12-30T05:12:16.317Z,7
2023-12-30T05:13:16.397Z,7
2023-12-30T05:14:16.321Z,7
2023-12-30T05:15:19.060Z,7
2023-12-30T05:16:21.655Z,7
2023-12-30T05:17:16.321Z,7.1
2023-12-30T05:18:16.353Z,7.1
2023-12-30T05:19:16.411Z,7.1
2023-12-30T05:20:16.311Z,7.1
2023-12-30T05:21:16.313Z,7.2
2023-12-30T05:22:16.328Z,7.2
2023-12-30T05:23:16.308Z,7.2
2023-12-30T05:24:16.336Z,7.2
2023-12-30T05:25:16.332Z,7.2
2023-12-30T05:26:16.316Z,7.2
2023-12-30T05:27:16.315Z,7.2
2023-12-30T05:28:16.356Z,7.2
2023-12-30T05:29:16.317Z,7.2
2023-12-30T05:30:16.341Z,7.2
2023-12-30T05:31:16.347Z,7.2
2023-12-30T05:32:16.312Z,7.2
2023-12-30T05:33:16.391Z,7.2
2023-12-30T05:34:16.346Z,7.2
2023-12-30T05:35:16.314Z,7.2
2023-12-30T05:36:18.797Z,7.2
2023-12-30T05:37:21.720Z,7.2
2023-12-30T05:38:16.327Z,7.2
2023-12-30T05:39:16.318Z,7.2
2023-12-30T05:40:16.350Z,7.2
2023-12-30T05:41:16.315Z,7.2
2023-12-30T05:42:16.321Z,7.2
2023-12-30T05:43:16.352Z,7.2
2023-12-30T05:44:16.305Z,7.2
2023-12-30T05:45:16.327Z,7.1
2023-12-30T05:46:16.435Z,7.1
2023-12-30T05:47:16.316Z,7
2023-12-30T05:48:16.399Z,7
2023-12-30T05:49:16.346Z,6.9
2023-12-30T05:50:16.312Z,6.8
2023-12-30T05:51:16.322Z,6.8
2023-12-30T05:52:16.360Z,6.7
2023-12-30T05:53:16.325Z,6.6
2023-12-30T05:54:16.309Z,6.6
2023-12-30T05:55:16.327Z,6.6
2023-12-30T05:56:16.313Z,6.5
2023-12-30T05:57:18.983Z,6.5
2023-12-30T05:58:21.836Z,6.5
2023-12-30T06:00:16.309Z,6.3
2023-12-30T06:01:16.389Z,6.3
2023-12-30T06:02:16.302Z,6.2
2023-12-30T06:03:16.333Z,6.2
2023-12-30T06:04:16.460Z,6.1
2023-12-30T06:05:16.324Z,6.1
2023-12-30T06:06:16.334Z,6.1
2023-12-30T06:07:16.431Z,6.1
2023-12-30T06:08:16.317Z,6.1
2023-12-30T06:09:16.308Z,6.1
2023-12-30T06:10:16.334Z,6.1
2023-12-30T06:11:16.305Z,6.1
2023-12-30T06:12:16.325Z,6.2
2023-12-30T06:13:16.361Z,6.2
2023-12-30T06:14:16.308Z,6.2
2023-12-30T06:15:16.312Z,6.2
2023-12-30T06:16:16.332Z,6.2
2023-12-30T06:17:16.328Z,6.2
2023-12-30T06:18:19.138Z,6.2
2023-12-30T06:19:21.911Z,6.2
2023-12-30T06:20:16.315Z,6.3
2023-12-30T06:21:16.312Z,6.3
2023-12-30T06:22:16.341Z,6.3
2023-12-30T06:23:16.368Z,6.4
2023-12-30T06:24:16.315Z,6.4
2023-12-30T06:25:16.366Z,6.4
2023-12-30T06:26:16.312Z,6.4
2023-12-30T06:27:16.327Z,6.4
2023-12-30T06:28:16.562Z,6.4
2023-12-30T06:29:16.403Z,6.4
2023-12-30T06:30:16.347Z,6.4
2023-12-30T06:31:16.365Z,6.4
2023-12-30T06:32:16.339Z,6.4
2023-12-30T06:33:16.403Z,6.3
2023-12-30T06:34:16.375Z,6.4
2023-12-30T06:35:16.321Z,6.3
2023-12-30T06:36:16.315Z,6.3
2023-12-30T06:37:16.367Z,6.3
2023-12-30T06:38:16.318Z,6.3
2023-12-30T06:39:19.076Z,6.3
2023-12-30T06:40:22.126Z,6.3
2023-12-30T06:41:16.318Z,6.3
2023-12-30T06:42:16.338Z,6.3
2023-12-30T06:43:16.342Z,6.2
2023-12-30T06:44:16.318Z,6.2
2023-12-30T06:45:16.320Z,6.1
2023-12-30T06:46:16.351Z,6.1
2023-12-30T06:47:16.326Z,6.1
2023-12-30T06:48:16.321Z,6.1
2023-12-30T06:49:16.674Z,6.1
2023-12-30T06:50:18.027Z,6.1
2023-12-30T06:51:16.322Z,6.1
2023-12-30T06:52:16.342Z,6.1
2023-12-30T06:54:16.303Z,6.1
2023-12-30T06:55:20.442Z,6.1
2023-12-30T06:56:16.350Z,6.1
2023-12-30T06:57:16.311Z,6.1
2023-12-30T06:58:16.324Z,6
2023-12-30T06:59:16.313Z,6
2023-12-30T07:00:19.166Z,6
2023-12-30T07:01:22.212Z,6
2023-12-30T07:02:16.445Z,6
2023-12-30T07:03:16.340Z,5.9
2023-12-30T07:04:16.340Z,5.9
2023-12-30T07:05:16.322Z,5.8
2023-12-30T07:06:16.320Z,5.8
2023-12-30T07:07:16.372Z,5.8
2023-12-30T07:08:16.327Z,5.8
2023-12-30T07:10:16.759Z,5.8
2023-12-30T07:11:16.312Z,5.8
2023-12-30T07:12:16.311Z,5.8
2023-12-30T07:13:16.373Z,5.7
2023-12-30T07:14:16.312Z,5.7
2023-12-30T07:15:16.385Z,5.7
2023-12-30T07:16:16.346Z,5.7
2023-12-30T07:17:16.308Z,5.7
2023-12-30T07:18:16.422Z,5.7
2023-12-30T07:19:16.678Z,5.7
2023-12-30T07:20:16.322Z,5.7
2023-12-30T07:21:20.969Z,5.7
2023-12-30T07:22:22.232Z,5.7
2023-12-30T07:23:16.322Z,5.7
2023-12-30T07:24:16.313Z,5.7
2023-12-30T07:25:16.381Z,5.7
2023-12-30T07:26:16.310Z,5.7
2023-12-30T07:27:16.314Z,5.7
2023-12-30T07:28:16.350Z,5.7
2023-12-30T07:29:16.316Z,5.6
2023-12-30T07:30:16.396Z,5.6
2023-12-30T07:31:16.621Z,5.6
2023-12-30T07:32:16.317Z,5.6
2023-12-30T07:33:16.344Z,5.6
2023-12-30T07:34:16.439Z,5.6
2023-12-30T07:35:16.319Z,5.6
2023-12-30T07:36:16.468Z,5.6
2023-12-30T07:37:16.350Z,5.6
2023-12-30T07:38:16.559Z,5.6
2023-12-30T07:39:16.654Z,5.7
2023-12-30T07:40:16.741Z,5.7
2023-12-30T07:41:16.361Z,5.7
2023-12-30T07:42:22.678Z,5.7
2023-12-30T07:43:22.378Z,5.7
2023-12-30T07:44:16.318Z,5.7
2023-12-30T07:45:16.311Z,5.7
2023-12-30T07:46:16.348Z,5.7
2023-12-30T07:47:16.330Z,5.7
2023-12-30T07:48:16.326Z,5.7
2023-12-30T07:49:16.378Z,5.7
2023-12-30T07:50:16.316Z,5.8
2023-12-30T07:51:16.318Z,5.8
2023-12-30T07:52:16.323Z,5.8
2023-12-30T07:53:16.308Z,5.8
2023-12-30T07:54:16.315Z,5.8
2023-12-30T07:55:16.352Z,5.8
2023-12-30T07:56:16.311Z,5.9
2023-12-30T07:57:16.306Z,5.9
2023-12-30T07:58:16.362Z,5.9
2023-12-30T07:59:16.311Z,5.9
2023-12-30T08:00:16.319Z,6
2023-12-30T08:01:16.350Z,6
2023-12-30T08:02:16.371Z,6
2023-12-30T08:03:19.516Z,6.1
2023-12-30T08:04:22.499Z,6.1
2023-12-30T08:05:16.334Z,6.1
2023-12-30T08:06:16.351Z,6.1
2023-12-30T08:07:16.334Z,6.1
2023-12-30T08:08:16.310Z,6.1
2023-12-30T08:09:16.317Z,6.1
2023-12-30T08:10:16.380Z,6.1
2023-12-30T08:11:16.313Z,6.2
2023-12-30T08:12:16.313Z,6.2
2023-12-30T08:13:16.352Z,6.2
2023-12-30T08:14:16.310Z,6.2
2023-12-30T08:15:16.329Z,6.2
2023-12-30T08:16:16.378Z,6.3
2023-12-30T08:17:16.339Z,6.3
2023-12-30T08:18:16.466Z,6.3
2023-12-30T08:19:16.346Z,6.2
2023-12-30T08:20:16.351Z,6.2
2023-12-30T08:21:16.307Z,6.2
2023-12-30T08:22:16.326Z,6.2
2023-12-30T08:23:16.522Z,6.2
2023-12-30T08:24:19.568Z,6.3
2023-12-30T08:25:22.596Z,6.3
2023-12-30T08:26:16.314Z,6.3
2023-12-30T08:27:16.433Z,6.3
2023-12-30T08:28:16.335Z,6.3
2023-12-30T08:29:16.347Z,6.3
2023-12-30T08:30:16.333Z,6.4
2023-12-30T08:31:16.341Z,6.3
2023-12-30T08:32:16.311Z,6.4
2023-12-30T08:33:16.379Z,6.4
2023-12-30T08:34:16.506Z,6.4
2023-12-30T08:35:16.326Z,6.4
2023-12-30T08:36:16.306Z,6.5
2023-12-30T08:37:16.323Z,6.5
2023-12-30T08:38:16.323Z,6.5
2023-12-30T08:39:16.315Z,6.6
2023-12-30T08:40:16.346Z,6.6
2023-12-30T08:41:16.316Z,6.6
2023-12-30T08:42:16.312Z,6.6
2023-12-30T08:43:16.317Z,6.7
2023-12-30T08:44:16.628Z,6.7
2023-12-30T08:45:19.970Z,6.7
2023-12-30T08:46:22.834Z,6.7
2023-12-30T08:47:16.368Z,6.8
2023-12-30T08:48:16.607Z,6.8
2023-12-30T08:49:16.411Z,6.8
2023-12-30T08:50:16.323Z,6.9
2023-12-30T08:51:16.313Z,6.9
2023-12-30T08:52:16.348Z,6.9
2023-12-30T08:53:16.312Z,7
2023-12-30T08:54:16.322Z,7
2023-12-30T08:55:16.349Z,7
2023-12-30T08:56:16.315Z,7
2023-12-30T08:57:16.317Z,7
2023-12-30T08:58:16.387Z,7.1
2023-12-30T08:59:16.325Z,7.1
2023-12-30T09:00:16.314Z,7.1
2023-12-30T09:01:16.357Z,7.1
2023-12-30T09:02:16.312Z,7.1
2023-12-30T09:03:17.818Z,7.2
2023-12-30T09:04:16.406Z,7.2
2023-12-30T09:05:16.604Z,7.2
2023-12-30T09:06:19.753Z,7.2
2023-12-30T09:07:22.871Z,7.2
2023-12-30T09:08:16.316Z,7.2
2023-12-30T09:09:16.597Z,7.2
2023-12-30T09:10:16.331Z,7.2
2023-12-30T09:11:16.679Z,7.2
2023-12-30T09:12:16.345Z,7.3
2023-12-30T09:13:16.386Z,7.3
2023-12-30T09:14:16.317Z,7.3
2023-12-30T09:15:16.357Z,7.3
2023-12-30T09:16:16.349Z,7.3
2023-12-30T09:17:16.348Z,7.4
2023-12-30T09:18:16.710Z,7.4
2023-12-30T09:19:16.405Z,7.4
2023-12-30T09:20:16.383Z,7.4
2023-12-30T09:21:16.333Z,7.4
2023-12-30T09:22:16.356Z,7.5
2023-12-30T09:23:16.330Z,7.5
2023-12-30T09:24:16.314Z,7.5
2023-12-30T09:25:16.367Z,7.5
2023-12-30T09:26:16.744Z,7.5
2023-12-30T09:27:19.849Z,7.5
2023-12-30T09:28:22.921Z,7.5
2023-12-30T09:29:16.341Z,7.5
2023-12-30T09:30:16.760Z,7.6
2023-12-30T09:31:16.367Z,7.6
2023-12-30T09:32:16.321Z,7.6
2023-12-30T09:33:16.384Z,7.6
2023-12-30T09:34:20.879Z,7.7
2023-12-30T09:35:16.364Z,7.7
2023-12-30T09:36:16.321Z,7.7
2023-12-30T09:37:16.385Z,7.7
2023-12-30T09:38:16.320Z,7.7
2023-12-30T09:39:16.336Z,7.7
2023-12-30T09:40:16.339Z,7.7
2023-12-30T09:41:16.436Z,7.7
2023-12-30T09:42:16.322Z,7.7
2023-12-30T09:43:16.386Z,7.7
2023-12-30T09:44:16.335Z,7.7
2023-12-30T09:45:16.329Z,7.8
2023-12-30T09:46:16.384Z,7.8
2023-12-30T09:47:16.345Z,7.8
2023-12-30T09:48:17.152Z,7.8
2023-12-30T09:49:20.533Z,7.8
2023-12-30T09:50:23.132Z,7.8
2023-12-30T09:52:16.352Z,7.8
2023-12-30T09:53:16.317Z,7.9
2023-12-30T09:54:16.344Z,7.9
2023-12-30T09:55:16.406Z,7.9
2023-12-30T09:56:16.314Z,7.9
2023-12-30T09:57:16.329Z,7.9
2023-12-30T09:58:16.389Z,7.9
2023-12-30T09:59:16.336Z,8
2023-12-30T10:00:16.319Z,8
2023-12-30T10:01:16.378Z,8
2023-12-30T10:02:16.455Z,8
2023-12-30T10:03:16.334Z,8
2023-12-30T10:04:16.328Z,8.1
2023-12-30T10:05:16.379Z,8.1
2023-12-30T10:06:16.325Z,8.1
2023-12-30T10:07:16.326Z,8.1
2023-12-30T10:08:16.370Z,8.1
2023-12-30T10:09:17.169Z,8.1
2023-12-30T10:10:20.539Z,8.1
2023-12-30T10:11:23.189Z,8.2
2023-12-30T10:12:16.320Z,8.2
2023-12-30T10:13:16.341Z,8.2
2023-12-30T10:14:16.343Z,8.2
2023-12-30T10:15:16.314Z,8.2
2023-12-30T10:16:16.370Z,8.2
2023-12-30T10:17:16.318Z,8.2
2023-12-30T10:18:16.427Z,8.3
2023-12-30T10:19:16.388Z,8.3
2023-12-30T10:20:16.326Z,8.3
2023-12-30T10:21:16.316Z,8.3
2023-12-30T10:22:16.363Z,8.3
2023-12-30T10:23:16.580Z,8.3
2023-12-30T10:24:16.350Z,8.3
2023-12-30T10:25:16.365Z,8.3
2023-12-30T10:26:16.315Z,8.3
2023-12-30T10:27:16.311Z,8.3
2023-12-30T10:28:16.316Z,8.3
2023-12-30T10:29:16.330Z,8.3
2023-12-30T10:30:17.198Z,8.3
2023-12-30T10:31:20.344Z,8.3
2023-12-30T10:32:23.873Z,8.3
2023-12-30T10:33:16.428Z,8.4
2023-12-30T10:34:16.394Z,8.4
2023-12-30T10:35:16.327Z,8.4
2023-12-30T10:36:16.329Z,8.4
2023-12-30T10:37:16.347Z,8.4
2023-12-30T10:38:16.319Z,8.4
2023-12-30T10:39:16.312Z,8.4
2023-12-30T10:40:16.365Z,8.4
2023-12-30T10:41:16.312Z,8.4
2023-12-30T10:42:16.321Z,8.4
2023-12-30T10:43:16.355Z,8.4
2023-12-30T10:44:16.636Z,8.5
2023-12-30T10:46:16.338Z,8.5
2023-12-30T10:47:16.326Z,8.5
2023-12-30T10:48:16.343Z,8.5
2023-12-30T10:49:16.382Z,8.6
2023-12-30T10:50:16.440Z,8.6
2023-12-30T10:51:17.318Z,8.6
2023-12-30T10:52:20.502Z,8.6
2023-12-30T10:53:23.381Z,8.6
2023-12-30T10:54:16.321Z,8.6
2023-12-30T10:55:16.402Z,8.6
2023-12-30T10:56:16.315Z,8.6
2023-12-30T10:57:16.310Z,8.7
2023-12-30T10:58:16.369Z,8.7
2023-12-30T10:59:16.318Z,8.7
2023-12-30T11:00:16.471Z,8.7
2023-12-30T11:01:16.524Z,8.7
2023-12-30T11:02:16.612Z,8.7
2023-12-30T11:03:16.323Z,8.7
2023-12-30T11:04:16.497Z,8.7
2023-12-30T11:05:16.724Z,8.7
2023-12-30T11:06:16.391Z,8.7
2023-12-30T11:07:16.384Z,8.7
2023-12-30T11:08:16.311Z,8.7
2023-12-30T11:09:16.314Z,8.7
2023-12-30T11:10:16.342Z,8.7
2023-12-30T11:11:16.321Z,8.8
2023-12-30T11:12:17.432Z,8.8
2023-12-30T11:13:20.618Z,8.8
2023-12-30T11:14:23.529Z,8.8
2023-12-30T11:15:16.306Z,8.8
2023-12-30T11:16:16.354Z,8.8
2023-12-30T11:17:16.307Z,8.8
2023-12-30T11:18:16.476Z,8.8
2023-12-30T11:19:16.389Z,8.8
2023-12-30T11:20:16.315Z,8.8
2023-12-30T11:21:16.329Z,8.8
2023-12-30T11:22:16.326Z,8.8
2023-12-30T11:23:16.316Z,8.9
2023-12-30T11:24:16.321Z,8.8
2023-12-30T11:25:16.339Z,8.8
2023-12-30T11:26:16.311Z,8.8
2023-12-30T11:27:16.312Z,8.8
2023-12-30T11:28:16.325Z,8.9
2023-12-30T11:29:16.355Z,8.8
2023-12-30T11:30:16.326Z,8.9
2023-12-30T11:31:16.331Z,8.9
2023-12-30T11:32:16.306Z,8.8
2023-12-30T11:33:17.491Z,8.8
2023-12-30T11:34:20.834Z,8.9
2023-12-30T11:35:23.549Z,8.8
2023-12-30T11:36:16.461Z,8.8
2023-12-30T11:37:16.332Z,8.9
2023-12-30T11:38:16.313Z,8.8
2023-12-30T11:39:16.323Z,8.8
2023-12-30T11:40:16.319Z,8.9
2023-12-30T11:41:16.337Z,8.9
2023-12-30T11:42:16.317Z,8.9
2023-12-30T11:43:16.354Z,8.9
2023-12-30T11:44:16.419Z,8.9
2023-12-30T11:45:16.320Z,8.9
2023-12-30T11:46:16.360Z,8.9
2023-12-30T11:47:16.315Z,8.9
2023-12-30T11:48:16.375Z,8.9
2023-12-30T11:49:16.350Z,8.9
2023-12-30T11:50:16.327Z,8.9
2023-12-30T11:51:16.319Z,8.9
2023-12-30T11:52:16.355Z,8.9
2023-12-30T11:53:16.314Z,8.9
2023-12-30T11:54:17.620Z,8.9
2023-12-30T11:55:20.689Z,8.9
2023-12-30T11:56:23.583Z,8.9
2023-12-30T11:57:16.322Z,8.9
2023-12-30T11:58:16.355Z,8.9
2023-12-30T11:59:16.769Z,8.9
2023-12-30T12:00:16.327Z,8.9
2023-12-30T12:01:16.349Z,8.9
2023-12-30T12:02:16.756Z,8.9
2023-12-30T12:03:16.325Z,8.9
2023-12-30T12:04:16.369Z,8.9
2023-12-30T12:05:16.399Z,8.9
2023-12-30T12:06:16.375Z,9
2023-12-30T12:07:16.326Z,9
2023-12-30T12:08:16.412Z,9
2023-12-30T12:09:16.312Z,9
2023-12-30T12:10:16.375Z,9
2023-12-30T12:11:16.318Z,9
2023-12-30T12:12:16.318Z,9
2023-12-30T12:13:16.335Z,9
2023-12-30T12:14:16.320Z,9
2023-12-30T12:15:17.620Z,9
2023-12-30T12:16:20.780Z,9
2023-12-30T12:17:16.325Z,9
2023-12-30T12:18:16.348Z,9
2023-12-30T12:19:16.344Z,9
2023-12-30T12:20:16.975Z,9
2023-12-30T12:21:16.312Z,9
2023-12-30T12:22:16.488Z,9
2023-12-30T12:23:16.321Z,9
2023-12-30T12:24:16.330Z,9
2023-12-30T12:25:16.364Z,9
2023-12-30T12:26:16.331Z,9
2023-12-30T12:27:16.311Z,9
2023-12-30T12:28:16.352Z,9
2023-12-30T12:29:16.316Z,9.1
2023-12-30T12:30:16.322Z,9.1
2023-12-30T12:31:16.343Z,9.1
2023-12-30T12:32:16.325Z,9.1
2023-12-30T12:33:16.516Z,9.1
2023-12-30T12:34:16.466Z,9.1
2023-12-30T12:35:16.398Z,9.1
2023-12-30T12:36:17.719Z,9.1
2023-12-30T12:37:20.866Z,9.1
2023-12-30T12:38:16.319Z,9.1
2023-12-30T12:39:16.335Z,9.1
2023-12-30T12:40:16.348Z,9.2
2023-12-30T12:41:16.331Z,9.2
2023-12-30T12:42:23.174Z,9.2
2023-12-30T12:43:16.568Z,9.2
2023-12-30T12:44:16.328Z,9.2
2023-12-30T12:46:16.370Z,9.2
2023-12-30T12:47:16.325Z,9.3
2023-12-30T12:48:16.389Z,9.3
2023-12-30T12:49:16.371Z,9.3
2023-12-30T12:50:16.313Z,9.3
2023-12-30T12:51:16.320Z,9.3
2023-12-30T12:52:16.367Z,9.3
2023-12-30T12:53:16.337Z,9.3
2023-12-30T12:54:16.310Z,9.3
2023-12-30T12:55:16.363Z,9.3
2023-12-30T12:56:16.324Z,9.3
2023-12-30T12:57:17.968Z,9.3
2023-12-30T12:58:20.965Z,9.4
2023-12-30T12:59:16.317Z,9.4
2023-12-30T13:00:16.420Z,9.4
2023-12-30T13:01:16.379Z,9.4
2023-12-30T13:02:16.352Z,9.4
2023-12-30T13:03:16.333Z,9.4
2023-12-30T13:04:16.762Z,9.4
2023-12-30T13:06:16.356Z,9.4
2023-12-30T13:07:16.348Z,9.4
2023-12-30T13:08:16.314Z,9.4
2023-12-30T13:09:16.319Z,9.4
2023-12-30T13:10:16.324Z,9.4
2023-12-30T13:11:16.312Z,9.4
2023-12-30T13:12:16.307Z,9.3
2023-12-30T13:13:16.363Z,9.3
2023-12-30T13:14:16.314Z,9.3
2023-12-30T13:15:16.311Z,9.3
2023-12-30T13:16:16.341Z,9.3
2023-12-30T13:17:16.322Z,9.2
2023-12-30T13:18:18.099Z,9.2
2023-12-30T13:19:21.155Z,9.2
2023-12-30T13:20:16.308Z,9.2
2023-12-30T13:21:16.339Z,9.2
2023-12-30T13:22:16.366Z,9.1
2023-12-30T13:23:16.311Z,9.1
2023-12-30T13:24:16.317Z,9.1
2023-12-30T13:25:16.758Z,9.1
2023-12-30T13:26:16.414Z,9.1
2023-12-30T13:27:16.325Z,9.1
2023-12-30T13:28:16.333Z,9.1
2023-12-30T13:29:16.319Z,9.2
2023-12-30T13:30:16.315Z,9.2
2023-12-30T13:31:16.433Z,9.2
2023-12-30T13:32:16.313Z,9.2
2023-12-30T13:33:16.361Z,9.2
2023-12-30T13:34:16.329Z,9.2
2023-12-30T13:35:16.321Z,9.3
2023-12-30T13:36:16.351Z,9.3
2023-12-30T13:38:16.316Z,9.3
2023-12-30T13:39:18.601Z,9.3
2023-12-30T13:40:21.089Z,9.4
2023-12-30T13:41:16.328Z,9.4
2023-12-30T13:42:16.325Z,9.4
2023-12-30T13:43:16.313Z,9.5
2023-12-30T13:44:16.316Z,9.5
2023-12-30T13:45:16.313Z,9.5
2023-12-30T13:46:16.358Z,9.5
2023-12-30T13:47:16.309Z,9.5
2023-12-30T13:48:16.377Z,9.5
2023-12-30T13:49:16.351Z,9.5
2023-12-30T13:50:16.311Z,9.5
2023-12-30T13:51:16.351Z,9.5
2023-12-30T13:52:16.341Z,9.5
2023-12-30T13:53:16.310Z,9.5
2023-12-30T13:54:16.365Z,9.5
2023-12-30T13:55:16.431Z,9.6
2023-12-30T13:56:16.698Z,9.6
2023-12-30T13:57:16.334Z,9.6
2023-12-30T13:58:16.316Z,9.6
2023-12-30T13:59:16.305Z,9.6
2023-12-30T14:00:18.211Z,9.6
2023-12-30T14:01:21.385Z,9.6